createdAt,value
2022-09-04T00:05:04.291Z,8.63
2022-09-04T00:10:31.392Z,8.67
2022-09-04T00:15:53.675Z,8.71
2022-09-04T00:21:09.970Z,8.74
2022-09-04T00:26:43.292Z,8.79
2022-09-04T00:31:59.502Z,8.86
2022-09-04T00:37:07.322Z,8.91
2022-09-04T00:42:32.450Z,8.98
2022-09-04T00:47:39.654Z,9.04
2022-09-04T00:52:48.598Z,9.09
2022-09-04T00:58:33.590Z,9.12
2022-09-04T01:04:08.034Z,9.16
2022-09-04T01:09:32.544Z,9.22
2022-09-04T01:15:03.133Z,9.22
2022-09-04T01:20:24.130Z,9.21
2022-09-04T01:25:55.395Z,9.21
2022-09-04T01:31:36.866Z,9.23
2022-09-04T01:36:58.448Z,9.28
2022-09-04T01:42:14.968Z,9.23
2022-09-04T01:47:47.365Z,9.15
2022-09-04T01:53:05.525Z,9.08
2022-09-04T01:58:16.622Z,9.05
2022-09-04T02:03:39.584Z,9.01
2022-09-04T02:09:04.037Z,8.93
2022-09-04T02:14:19.503Z,8.89
2022-09-04T02:19:38.001Z,8.88
2022-09-04T02:25:19.076Z,8.93
2022-09-04T02:30:22.448Z,8.96
2022-09-04T02:35:31.125Z,8.97
2022-09-04T02:41:00.965Z,8.97
2022-09-04T02:46:47.049Z,8.97
2022-09-04T02:52:02.377Z,8.99
2022-09-04T02:57:50.645Z,9.05
2022-09-04T03:03:05.981Z,9.12
2022-09-04T03:08:58.515Z,9.18
2022-09-04T03:14:16.063Z,9.22
2022-09-04T03:19:28.385Z,9.24
2022-09-04T03:24:39.885Z,9.26
2022-09-04T03:29:55.797Z,9.27
2022-09-04T03:35:20.712Z,9.32
2022-09-04T03:40:28.838Z,9.32
2022-09-04T03:45:54.377Z,9.35
2022-09-04T03:50:58.813Z,9.38
2022-09-04T03:56:20.559Z,9.38
2022-09-04T04:01:45.071Z,9.37
2022-09-04T04:07:08.662Z,9.39
2022-09-04T04:12:49.843Z,9.47
2022-09-04T04:18:31.677Z,9.59
2022-09-04T04:23:48.712Z,9.76
2022-09-04T04:28:59.993Z,9.91
2022-09-04T04:34:11.725Z,9.98
2022-09-04T04:39:17.393Z,10.20
2022-09-04T04:44:51.019Z,10.56
2022-09-04T04:50:17.067Z,10.68
2022-09-04T04:55:59.296Z,10.85
2022-09-04T05:01:25.604Z,11.32
2022-09-04T05:06:38.920Z,13.88
2022-09-04T05:11:56.856Z,16.57
2022-09-04T05:17:09.938Z,18.69
2022-09-04T05:22:35.630Z,20.33
2022-09-04T05:27:58.716Z,21.44
2022-09-04T05:33:06.629Z,21.93
2022-09-04T05:38:32.776Z,21.51
2022-09-04T05:43:38.757Z,20.67
2022-09-04T05:48:53.124Z,19.60
2022-09-04T05:54:14.669Z,19.62
2022-09-04T05:59:46.962Z,20.84
2022-09-04T06:04:50.888Z,19.89
2022-09-04T06:10:15.603Z,18.99
2022-09-04T06:15:24.550Z,19.64
2022-09-04T06:20:52.342Z,20.33
2022-09-04T06:26:07.631Z,21.37
2022-09-04T06:31:13.597Z,22.25
2022-09-04T06:36:42.458Z,22.79
2022-09-04T06:42:15.940Z,23.25
2022-09-04T06:47:43.730Z,23.25
2022-09-04T06:52:56.257Z,23.01
2022-09-04T06:58:15.336Z,23.13
2022-09-04T07:03:53.777Z,23.32
2022-09-04T07:09:19.930Z,23.45
2022-09-04T07:15:08.511Z,23.53
2022-09-04T07:20:27.059Z,23.46
2022-09-04T07:25:29.989Z,23.60
2022-09-04T07:31:22.475Z,23.64
2022-09-04T07:36:31.641Z,23.53
2022-09-04T07:41:54.504Z,23.21
2022-09-04T07:47:14.779Z,22.97
2022-09-04T07:52:23.458Z,22.88
2022-09-04T07:57:42.200Z,22.92
2022-09-04T08:02:45.099Z,23.17
2022-09-04T08:08:10.753Z,23.27
2022-09-04T08:13:34.530Z,23.36
2022-09-04T08:19:08.772Z,23.50
2022-09-04T08:24:37.373Z,23.19
2022-09-04T08:30:09.184Z,23.14
2022-09-04T08:35:27.326Z,23.12
2022-09-04T08:40:52.290Z,22.89
2022-09-04T08:46:36.037Z,21.46
2022-09-04T08:51:57.847Z,20.16
2022-09-04T08:57:19.802Z,19.38
2022-09-04T09:02:44.888Z,18.93
2022-09-04T09:07:54.279Z,18.80
2022-09-04T09:13:15.972Z,18.67
2022-09-04T09:18:40.754Z,18.67
2022-09-04T09:24:01.808Z,18.72
2022-09-04T09:29:41.964Z,18.77
2022-09-04T09:35:02.051Z,18.78
2022-09-04T09:40:26.770Z,18.73
2022-09-04T09:45:57.501Z,18.86
2022-09-04T09:51:44.772Z,18.97
2022-09-04T09:56:53.790Z,19.00
2022-09-04T10:02:18.158Z,19.06
2022-09-04T10:07:40.185Z,19.11
2022-09-04T10:13:20.812Z,19.21
2022-09-04T10:18:36.264Z,19.30
2022-09-04T10:23:58.933Z,19.27
2022-09-04T10:29:20.677Z,19.36
2022-09-04T10:34:30.446Z,19.51
2022-09-04T10:40:11.871Z,19.63
2022-09-04T10:45:33.316Z,19.78
2022-09-04T10:50:59.036Z,19.87
2022-09-04T10:56:09.407Z,20.11
2022-09-04T11:01:35.363Z,20.20
2022-09-04T11:07:28.820Z,20.04
2022-09-04T11:12:51.071Z,20.13
2022-09-04T11:18:03.945Z,20.13
2022-09-04T11:23:23.533Z,20.12
2022-09-04T11:28:46.914Z,20.19
2022-09-04T11:34:21.257Z,20.13
2022-09-04T11:39:39.148Z,19.95
2022-09-04T11:45:00.772Z,19.82
2022-09-04T11:50:22.197Z,19.67
2022-09-04T11:55:54.590Z,19.62
2022-09-04T12:01:19.102Z,19.68
2022-09-04T12:06:39.019Z,19.89
2022-09-04T12:12:01.262Z,20.20
2022-09-04T12:17:29.084Z,20.45
2022-09-04T12:23:09.537Z,20.44
2022-09-04T12:28:16.022Z,20.52
2022-09-04T12:33:49.850Z,20.44
2022-09-04T12:39:11.189Z,20.18
2022-09-04T12:44:34.904Z,19.85
2022-09-04T12:50:01.548Z,19.59
2022-09-04T12:55:33.534Z,19.62
2022-09-04T13:00:52.905Z,19.74
2022-09-04T13:06:31.565Z,19.93
2022-09-04T13:11:43.682Z,20.12
2022-09-04T13:17:01.949Z,20.10
2022-09-04T13:22:39.671Z,20.03
2022-09-04T13:28:16.911Z,20.00
2022-09-04T13:33:42.408Z,20.04
2022-09-04T13:39:06.734Z,20.08
2022-09-04T13:44:28.153Z,20.13
2022-09-04T13:49:48.173Z,20.13
2022-09-04T13:55:00.484Z,20.02
2022-09-04T14:00:08.029Z,19.99
2022-09-04T14:05:22.165Z,19.96
2022-09-04T14:11:01.729Z,19.93
2022-09-04T14:16:11.886Z,20.01
2022-09-04T14:21:43.512Z,19.98
2022-09-04T14:27:04.573Z,19.81
2022-09-04T14:32:28.461Z,19.63
2022-09-04T14:37:42.880Z,19.54
2022-09-04T14:43:00.324Z,19.49
2022-09-04T14:48:07.496Z,19.49
2022-09-04T14:53:11.098Z,19.43
2022-09-04T14:58:30.233Z,19.35
2022-09-04T15:03:49.277Z,19.27
2022-09-04T15:08:53.932Z,19.22
2022-09-04T15:14:33.102Z,19.22
2022-09-04T15:19:41.074Z,19.19
2022-09-04T15:24:44.048Z,19.10
2022-09-04T15:30:18.794Z,19.03
2022-09-04T15:35:28.389Z,18.94
2022-09-04T15:40:59.620Z,18.84
2022-09-04T15:46:21.038Z,18.75
2022-09-04T15:51:41.638Z,18.61
2022-09-04T15:56:54.108Z,18.43
2022-09-04T16:02:11.931Z,18.31
2022-09-04T16:07:33.099Z,18.21
2022-09-04T16:12:53.305Z,18.13
2022-09-04T16:17:59.855Z,18.02
2022-09-04T16:23:08.584Z,17.87
2022-09-04T16:28:20.324Z,17.71
2022-09-04T16:33:38.243Z,17.55
2022-09-04T16:38:50.563Z,17.38
2022-09-04T16:44:07.462Z,17.20
2022-09-04T16:49:22.076Z,16.98
2022-09-04T16:54:49.253Z,16.78
2022-09-04T17:00:22.646Z,16.60
2022-09-04T17:05:39.411Z,16.37
2022-09-04T17:11:04.382Z,16.15
2022-09-04T17:16:19.866Z,15.90
2022-09-04T17:27:32.393Z,15.65
2022-09-04T17:29:09.737Z,15.38
2022-09-04T17:40:32.454Z,15.15
2022-09-04T17:40:46.823Z,14.93
2022-09-04T17:44:25.499Z,14.69
2022-09-04T17:49:34.708Z,14.48
2022-09-04T17:54:48.896Z,14.31
2022-09-04T17:59:57.165Z,14.10
2022-09-04T18:05:15.023Z,13.86
2022-09-04T18:10:36.030Z,13.60
2022-09-04T18:16:17.018Z,13.31
2022-09-04T18:21:29.235Z,12.97
2022-09-04T18:26:45.900Z,12.73
2022-09-04T18:37:06.420Z,12.56
2022-09-04T18:37:47.441Z,12.41
2022-09-04T18:46:41.266Z,12.26
2022-09-04T18:51:06.965Z,12.11
2022-09-04T18:54:20.508Z,12.00
2022-09-04T18:59:29.955Z,11.87
2022-09-04T19:04:41.685Z,11.79
2022-09-04T19:10:06.405Z,11.76
2022-09-04T19:15:36.298Z,11.73
2022-09-04T19:20:48.347Z,11.69
2022-09-04T19:25:55.210Z,11.65
2022-09-04T19:31:06.082Z,11.58
2022-09-04T19:36:37.931Z,11.48
2022-09-04T19:46:02.354Z,11.41
2022-09-04T19:47:27.242Z,11.38
2022-09-04T19:53:30.150Z,11.35
2022-09-04T19:58:09.644Z,11.28
2022-09-04T20:03:29.482Z,11.17
2022-09-04T20:08:42.445Z,11.07
2022-09-04T20:13:49.958Z,10.98
2022-09-04T20:19:12.057Z,10.92
2022-09-04T20:24:32.670Z,10.87
2022-09-04T20:29:54.751Z,10.85
2022-09-04T20:35:33.290Z,10.82
2022-09-04T20:40:59.508Z,10.73
2022-09-04T20:47:44.508Z,10.62
2022-09-04T20:52:52.787Z,10.51
2022-09-04T20:59:26.791Z,10.39
2022-09-04T21:03:28.042Z,10.34
2022-09-04T21:08:32.029Z,10.32
2022-09-04T21:13:51.737Z,10.30
2022-09-04T21:19:27.644Z,10.22
2022-09-04T21:24:54.371Z,10.19
2022-09-04T21:30:17.163Z,10.23
2022-09-04T21:35:32.333Z,10.23
2022-09-04T21:40:49.966Z,10.20
2022-09-04T21:46:18.517Z,10.15
2022-09-04T21:51:28.652Z,10.08
2022-09-04T22:02:29.946Z,10.01
2022-09-04T22:02:59.442Z,9.93
2022-09-04T22:13:32.066Z,9.82
2022-09-04T22:13:49.308Z,9.73
2022-09-04T22:19:01.952Z,9.63
2022-09-04T22:24:41.281Z,9.54
2022-09-04T22:29:58.448Z,9.47
2022-09-04T22:35:35.914Z,9.39
2022-09-04T22:40:56.203Z,9.25
2022-09-04T22:46:03.364Z,9.15
2022-09-04T22:51:25.319Z,9.08
2022-09-04T22:56:28.320Z,8.99
2022-09-04T23:01:31.735Z,8.91
2022-09-04T23:10:43.497Z,8.84
2022-09-04T23:14:02.223Z,8.75
2022-09-04T23:21:23.603Z,8.68
2022-09-04T23:26:46.605Z,8.62
2022-09-04T23:29:44.485Z,8.51
2022-09-04T23:34:54.666Z,8.42
2022-09-04T23:40:38.007Z,8.32
2022-09-04T23:46:08.293Z,8.25
2022-09-04T23:51:56.267Z,8.17
2022-09-04T23:57:26.195Z,8.13
